createdAt,value
2018-12-21T00:00:02.942Z,0.00
2018-12-21T00:01:02.847Z,0.00
2018-12-21T00:02:02.819Z,0.00
2018-12-21T00:03:02.786Z,0.00
2018-12-21T00:04:02.751Z,0.00
2018-12-21T00:05:02.756Z,0.00
2018-12-21T00:06:02.731Z,0.00
2018-12-21T00:07:02.660Z,0.00
2018-12-21T00:08:02.626Z,0.00
2018-12-21T00:09:02.583Z,0.00
2018-12-21T00:10:02.548Z,0.00
2018-12-21T00:11:02.906Z,0.00
2018-12-21T00:12:02.491Z,0.00
2018-12-21T00:13:02.460Z,0.00
2018-12-21T00:14:02.420Z,0.00
2018-12-21T00:15:03.348Z,0.00
2018-12-21T00:16:02.395Z,0.00
2018-12-21T00:17:02.852Z,0.00
2018-12-21T00:18:02.287Z,0.00
2018-12-21T00:19:02.255Z,0.00
2018-12-21T00:20:02.260Z,0.00
2018-12-21T00:21:02.411Z,0.00
2018-12-21T00:22:02.887Z,0.00
2018-12-21T00:23:02.407Z,0.00
2018-12-21T00:24:02.848Z,0.00
2018-12-21T00:25:02.052Z,0.00
2018-12-21T00:26:02.019Z,0.00
2018-12-21T00:27:02.860Z,0.00
2018-12-21T00:28:02.011Z,0.00
2018-12-21T00:29:01.923Z,0.00
2018-12-21T00:30:02.852Z,0.00
2018-12-21T00:31:01.864Z,0.00
2018-12-21T00:32:01.829Z,0.00
2018-12-21T00:33:01.896Z,0.00
2018-12-21T00:34:01.753Z,0.00
2018-12-21T00:35:01.777Z,0.00
2018-12-21T00:36:01.736Z,0.00
2018-12-21T00:37:01.654Z,0.00
2018-12-21T00:38:01.680Z,0.00
2018-12-21T00:39:01.588Z,0.00
2018-12-21T00:40:02.348Z,0.00
2018-12-21T00:41:01.521Z,0.00
2018-12-21T00:42:01.489Z,0.00
2018-12-21T00:43:01.501Z,0.00
2018-12-21T00:44:01.469Z,0.00
2018-12-21T00:45:01.400Z,0.00
2018-12-21T00:46:02.350Z,0.00
2018-12-21T00:47:01.321Z,0.00
2018-12-21T00:48:01.311Z,0.00
2018-12-21T00:49:01.297Z,0.00
2018-12-21T00:50:01.853Z,0.00
2018-12-21T00:51:01.197Z,0.00
2018-12-21T00:52:01.854Z,0.00
2018-12-21T00:53:01.859Z,0.00
2018-12-21T00:54:01.407Z,0.00
2018-12-21T00:55:01.063Z,0.00
2018-12-21T00:56:01.850Z,0.00
2018-12-21T00:57:00.996Z,0.00
2018-12-21T00:58:00.964Z,0.00
2018-12-21T00:59:00.984Z,0.00
2018-12-21T01:00:02.809Z,0.00
2018-12-21T01:01:00.869Z,0.00
2018-12-21T01:02:01.356Z,0.00
2018-12-21T01:03:00.801Z,0.00
2018-12-21T01:04:01.413Z,0.00
2018-12-21T01:05:01.350Z,0.00
2018-12-21T01:06:01.351Z,0.00
2018-12-21T01:07:01.351Z,0.00
2018-12-21T01:08:01.357Z,0.00
2018-12-21T01:09:00.898Z,0.00
2018-12-21T01:10:00.921Z,0.00
2018-12-21T01:11:05.263Z,0.00
2018-12-21T01:12:00.511Z,0.00
2018-12-21T01:13:01.356Z,0.00
2018-12-21T01:14:00.445Z,0.00
2018-12-21T01:15:00.458Z,0.00
2018-12-21T01:16:00.380Z,0.00
2018-12-21T01:17:00.531Z,0.00
2018-12-21T01:18:00.855Z,0.00
2018-12-21T01:19:00.282Z,0.00
2018-12-21T01:20:00.417Z,0.00
2018-12-21T01:21:00.214Z,0.00
2018-12-21T01:22:00.854Z,0.00
2018-12-21T01:23:00.856Z,0.00
2018-12-21T01:24:00.857Z,0.00
2018-12-21T01:25:00.421Z,0.00
2018-12-21T01:26:00.925Z,0.00
2018-12-21T01:27:00.028Z,0.00
2018-12-21T01:27:59.992Z,0.00
2018-12-21T01:28:59.955Z,0.00
2018-12-21T01:30:00.498Z,0.00
2018-12-21T01:30:59.899Z,0.00
2018-12-21T01:31:59.869Z,0.00
2018-12-21T01:32:59.826Z,0.00
2018-12-21T01:33:59.795Z,0.00
2018-12-21T01:34:59.819Z,0.00
2018-12-21T01:35:59.783Z,0.00
2018-12-21T01:36:59.704Z,0.00
2018-12-21T01:38:00.358Z,0.00
2018-12-21T01:38:59.638Z,0.00
2018-12-21T01:39:59.607Z,0.00
2018-12-21T01:40:59.713Z,0.00
2018-12-21T01:41:59.537Z,0.00
2018-12-21T01:43:00.359Z,0.00
2018-12-21T01:43:59.482Z,0.00
2018-12-21T01:44:59.441Z,0.00
2018-12-21T01:45:59.449Z,0.00
2018-12-21T01:46:59.907Z,0.00
2018-12-21T01:47:59.861Z,0.00
2018-12-21T01:48:59.869Z,0.00
2018-12-21T01:49:59.859Z,0.00
2018-12-21T01:50:59.437Z,0.00
2018-12-21T01:51:59.424Z,0.00
2018-12-21T01:52:59.189Z,0.00
2018-12-21T01:53:59.153Z,0.00
2018-12-21T01:54:59.858Z,0.00
2018-12-21T01:55:59.086Z,0.00
2018-12-21T01:56:59.103Z,0.00
2018-12-21T01:57:59.416Z,0.00
2018-12-21T01:58:58.991Z,0.00
2018-12-21T01:59:59.860Z,0.00
2018-12-21T02:00:58.926Z,0.00
2018-12-21T02:01:58.898Z,0.00
2018-12-21T02:02:58.911Z,0.00
2018-12-21T02:03:58.837Z,0.00
2018-12-21T02:04:58.806Z,0.00
2018-12-21T02:05:58.773Z,0.00
2018-12-21T02:06:58.843Z,0.00
2018-12-21T02:07:58.743Z,0.00
2018-12-21T02:08:58.674Z,0.00
2018-12-21T02:09:58.642Z,0.00
2018-12-21T02:10:58.650Z,0.00
2018-12-21T02:11:58.578Z,0.00
2018-12-21T02:12:58.541Z,0.00
2018-12-21T02:13:59.272Z,0.00
2018-12-21T02:14:58.478Z,0.00
2018-12-21T02:15:58.448Z,0.00
2018-12-21T02:16:59.400Z,0.00
2018-12-21T02:17:59.363Z,0.00
2018-12-21T02:18:58.417Z,0.00
2018-12-21T02:19:58.321Z,0.00
2018-12-21T02:20:58.867Z,0.00
2018-12-21T02:21:58.259Z,0.00
2018-12-21T02:22:58.230Z,0.00
2018-12-21T02:23:58.420Z,0.00
2018-12-21T02:24:58.894Z,0.00
2018-12-21T02:25:58.865Z,0.00
2018-12-21T02:26:58.098Z,0.00
2018-12-21T02:27:58.153Z,0.00
2018-12-21T02:28:58.092Z,0.00
2018-12-21T02:29:58.868Z,0.00
2018-12-21T02:30:58.424Z,0.00
2018-12-21T02:31:58.862Z,0.00
2018-12-21T02:32:58.866Z,0.00
2018-12-21T02:33:58.871Z,0.00
2018-12-21T02:34:57.837Z,0.00
2018-12-21T02:35:57.858Z,0.00
2018-12-21T02:36:57.773Z,0.00
2018-12-21T02:37:57.741Z,0.00
2018-12-21T02:38:57.713Z,0.00
2018-12-21T02:39:57.755Z,0.00
2018-12-21T02:40:57.685Z,0.00
2018-12-21T02:41:57.613Z,0.00
2018-12-21T02:42:57.585Z,0.00
2018-12-21T02:43:58.366Z,0.00
2018-12-21T02:44:57.562Z,0.00
2018-12-21T02:45:57.485Z,0.00
2018-12-21T02:46:57.457Z,0.00
2018-12-21T02:47:57.434Z,0.00
2018-12-21T02:48:58.033Z,0.00
2018-12-21T02:49:57.354Z,0.00
2018-12-21T02:50:57.438Z,0.00
2018-12-21T02:52:05.356Z,0.00
2018-12-21T02:52:57.871Z,0.00
2018-12-21T02:53:57.229Z,0.00
2018-12-21T02:54:57.198Z,0.00
2018-12-21T02:55:57.423Z,0.00
2018-12-21T02:56:57.139Z,0.00
2018-12-21T02:57:57.873Z,0.00
2018-12-21T02:58:57.073Z,0.00
2018-12-21T02:59:57.874Z,0.00
2018-12-21T03:00:57.430Z,0.00
2018-12-21T03:01:57.868Z,0.00
2018-12-21T03:02:57.886Z,0.00
2018-12-21T03:03:56.913Z,0.00
2018-12-21T03:04:56.874Z,0.00
2018-12-21T03:05:56.894Z,0.00
2018-12-21T03:07:05.892Z,0.00
2018-12-21T03:08:05.460Z,0.00
2018-12-21T03:08:56.746Z,0.00
2018-12-21T03:09:56.713Z,0.00
2018-12-21T03:10:56.980Z,0.00
2018-12-21T03:11:56.694Z,0.00
2018-12-21T03:13:05.944Z,0.00
2018-12-21T03:13:56.581Z,0.00
2018-12-21T03:14:57.460Z,0.00
2018-12-21T03:15:56.522Z,0.00
2018-12-21T03:16:57.013Z,0.00
2018-12-21T03:17:56.452Z,0.00
2018-12-21T03:18:56.419Z,0.00
2018-12-21T03:19:56.393Z,0.00
2018-12-21T03:20:56.350Z,0.00
2018-12-21T03:21:56.503Z,0.00
2018-12-21T03:22:56.288Z,0.00
2018-12-21T03:23:56.325Z,0.00
2018-12-21T03:24:56.226Z,0.00
2018-12-21T03:25:56.188Z,0.00
2018-12-21T03:26:56.196Z,0.00
2018-12-21T03:27:56.125Z,0.00
2018-12-21T03:28:56.093Z,0.00
2018-12-21T03:29:56.082Z,0.00
2018-12-21T03:30:56.031Z,0.00
2018-12-21T03:31:56.045Z,0.00
2018-12-21T03:32:56.006Z,0.00
2018-12-21T03:33:55.941Z,0.00
2018-12-21T03:34:55.904Z,0.00
2018-12-21T03:35:55.872Z,0.00
2018-12-21T03:36:56.016Z,0.00
2018-12-21T03:37:55.805Z,0.00
2018-12-21T03:38:55.769Z,0.00
2018-12-21T03:39:56.455Z,0.00
2018-12-21T03:40:56.457Z,0.00
2018-12-21T03:41:55.721Z,0.00
2018-12-21T03:42:55.651Z,0.00
2018-12-21T03:43:56.460Z,0.00
2018-12-21T03:44:55.640Z,0.00
2018-12-21T03:45:56.461Z,0.00
2018-12-21T03:46:55.558Z,0.00
2018-12-21T03:47:55.524Z,0.00
2018-12-21T03:48:55.448Z,0.00
2018-12-21T03:49:55.420Z,0.00
2018-12-21T03:50:55.436Z,0.00
2018-12-21T03:51:55.358Z,0.00
2018-12-21T03:52:55.372Z,0.00
2018-12-21T03:53:55.288Z,0.00
2018-12-21T03:54:55.262Z,0.00
2018-12-21T03:55:55.957Z,0.00
2018-12-21T03:56:55.190Z,0.00
2018-12-21T03:57:55.302Z,0.00
2018-12-21T03:58:55.972Z,0.00
2018-12-21T03:59:55.101Z,0.00
2018-12-21T04:00:55.067Z,0.00
2018-12-21T04:01:55.049Z,0.00
2018-12-21T04:02:55.506Z,0.00
2018-12-21T04:03:55.957Z,0.00
2018-12-21T04:04:55.013Z,0.00
2018-12-21T04:05:54.905Z,0.00
2018-12-21T04:06:55.457Z,0.00
2018-12-21T04:07:55.469Z,0.00
2018-12-21T04:08:54.850Z,0.00
2018-12-21T04:09:54.806Z,0.00
2018-12-21T04:10:55.468Z,0.00
2018-12-21T04:11:54.716Z,0.00
2018-12-21T04:12:54.679Z,0.00
2018-12-21T04:13:54.699Z,0.00
2018-12-21T04:14:54.615Z,0.00
2018-12-21T04:15:55.467Z,0.00
2018-12-21T04:16:54.556Z,0.00
2018-12-21T04:17:54.514Z,0.00
2018-12-21T04:18:54.520Z,0.00
2018-12-21T04:19:54.451Z,0.00
2018-12-21T04:20:54.428Z,0.00
2018-12-21T04:21:54.431Z,0.00
2018-12-21T04:22:54.356Z,0.00
2018-12-21T04:23:54.325Z,0.00
2018-12-21T04:24:54.293Z,0.00
2018-12-21T04:25:54.264Z,0.00
2018-12-21T04:26:54.271Z,0.00
2018-12-21T04:27:54.194Z,0.00
2018-12-21T04:28:54.161Z,0.00
2018-12-21T04:29:54.135Z,0.00
2018-12-21T04:30:54.142Z,0.00
2018-12-21T04:31:54.069Z,0.00
2018-12-21T04:32:54.036Z,0.00
2018-12-21T04:33:54.002Z,0.00
2018-12-21T04:34:53.969Z,0.00
2018-12-21T04:35:53.980Z,0.00
2018-12-21T04:36:53.940Z,0.00
2018-12-21T04:37:53.914Z,0.00
2018-12-21T04:38:53.840Z,0.00
2018-12-21T04:39:53.822Z,0.00
2018-12-21T04:40:53.889Z,0.00
2018-12-21T04:41:53.786Z,0.00
2018-12-21T04:42:54.024Z,0.00
2018-12-21T04:43:53.680Z,0.00
2018-12-21T04:44:53.746Z,0.00
2018-12-21T04:45:53.615Z,0.00
2018-12-21T04:46:53.582Z,0.00
2018-12-21T04:47:53.597Z,0.00
2018-12-21T04:48:53.563Z,0.00
2018-12-21T04:49:54.466Z,0.00
2018-12-21T04:50:53.471Z,0.00
2018-12-21T04:51:53.965Z,0.00
2018-12-21T04:52:53.432Z,0.00
2018-12-21T04:53:53.398Z,0.00
2018-12-21T04:54:53.324Z,0.00
2018-12-21T04:55:53.293Z,0.00
2018-12-21T04:56:53.259Z,0.00
2018-12-21T04:57:53.230Z,0.00
2018-12-21T04:58:53.245Z,0.00
2018-12-21T04:59:53.162Z,0.00
2018-12-21T05:00:53.142Z,0.00
2018-12-21T05:01:53.101Z,0.00
2018-12-21T05:02:53.066Z,0.00
2018-12-21T05:03:53.080Z,0.00
2018-12-21T05:04:53.012Z,0.00
2018-12-21T05:05:53.968Z,0.00
2018-12-21T05:06:53.482Z,0.00
2018-12-21T05:07:52.915Z,0.00
2018-12-21T05:08:53.020Z,0.00
2018-12-21T05:09:52.895Z,0.00
2018-12-21T05:10:52.809Z,0.00
2018-12-21T05:11:52.781Z,0.00
2018-12-21T05:12:53.469Z,0.00
2018-12-21T05:13:52.717Z,0.00
2018-12-21T05:14:52.724Z,0.00
2018-12-21T05:15:52.695Z,0.00
2018-12-21T05:16:52.626Z,0.00
2018-12-21T05:17:52.588Z,0.00
2018-12-21T05:18:52.568Z,0.00
2018-12-21T05:19:52.567Z,0.00
2018-12-21T05:20:52.497Z,0.00
2018-12-21T05:21:52.515Z,0.00
2018-12-21T05:22:52.706Z,0.00
2018-12-21T05:23:52.394Z,0.00
2018-12-21T05:24:52.416Z,0.00
2018-12-21T05:25:52.330Z,0.00
2018-12-21T05:26:52.306Z,0.00
2018-12-21T05:27:52.263Z,0.00
2018-12-21T05:28:52.230Z,0.00
2018-12-21T05:29:52.528Z,0.00
2018-12-21T05:30:52.214Z,0.00
2018-12-21T05:31:52.159Z,0.00
2018-12-21T05:32:52.107Z,0.00
2018-12-21T05:33:52.075Z,0.00
2018-12-21T05:34:52.040Z,0.00
2018-12-21T05:35:52.055Z,0.00
2018-12-21T05:36:51.975Z,0.00
2018-12-21T05:37:51.943Z,0.00
2018-12-21T05:38:51.910Z,0.00
2018-12-21T05:39:51.883Z,0.00
2018-12-21T05:40:51.888Z,0.00
2018-12-21T05:41:51.857Z,0.00
2018-12-21T05:42:51.791Z,0.00
2018-12-21T05:43:51.751Z,0.00
2018-12-21T05:44:52.468Z,0.00
2018-12-21T05:45:51.685Z,0.00
2018-12-21T05:46:52.029Z,4.00
2018-12-21T05:47:53.577Z,4.00
2018-12-21T05:48:51.595Z,0.00
2018-12-21T05:49:51.556Z,0.00
2018-12-21T05:50:51.525Z,0.00
2018-12-21T05:51:51.551Z,0.00
2018-12-21T05:52:51.458Z,0.00
2018-12-21T05:53:51.432Z,0.00
2018-12-21T05:54:51.405Z,0.00
2018-12-21T05:55:51.424Z,0.00
2018-12-21T05:56:51.972Z,0.00
2018-12-21T05:57:51.359Z,0.00
2018-12-21T05:58:51.308Z,0.00
2018-12-21T05:59:51.239Z,0.00
2018-12-21T06:00:51.206Z,0.00
2018-12-21T06:01:51.974Z,0.00
2018-12-21T06:02:51.144Z,0.00
2018-12-21T06:03:52.039Z,0.00
2018-12-21T06:04:51.982Z,0.00
2018-12-21T06:05:51.045Z,0.00
2018-12-21T06:06:51.010Z,0.00
2018-12-21T06:07:51.974Z,0.00
2018-12-21T06:08:51.001Z,0.00
2018-12-21T06:09:51.478Z,0.00
2018-12-21T06:10:50.886Z,0.00
2018-12-21T06:11:50.878Z,0.00
2018-12-21T06:12:50.836Z,0.00
2018-12-21T06:13:50.843Z,0.00
2018-12-21T06:14:50.754Z,0.00
2018-12-21T06:15:50.749Z,0.00
2018-12-21T06:16:50.690Z,0.00
2018-12-21T06:17:50.666Z,0.00
2018-12-21T06:18:50.684Z,0.00
2018-12-21T06:19:51.480Z,0.00
2018-12-21T06:20:50.568Z,0.00
2018-12-21T06:21:50.540Z,0.00
2018-12-21T06:22:50.499Z,0.00
2018-12-21T06:23:50.516Z,0.00
2018-12-21T06:24:50.435Z,0.00
2018-12-21T06:25:50.450Z,0.00
2018-12-21T06:26:50.376Z,0.00
2018-12-21T06:27:50.976Z,0.00
2018-12-21T06:28:50.315Z,0.00
2018-12-21T06:29:50.279Z,0.00
2018-12-21T06:30:50.288Z,0.00
2018-12-21T06:31:50.231Z,0.00
2018-12-21T06:32:50.179Z,0.00
2018-12-21T06:33:50.152Z,0.00
2018-12-21T06:34:50.116Z,0.00
2018-12-21T06:35:50.126Z,0.00
2018-12-21T06:36:50.068Z,0.00
2018-12-21T06:37:50.021Z,0.00
2018-12-21T06:38:49.987Z,0.00
2018-12-21T06:39:50.498Z,4.00
2018-12-21T06:40:49.969Z,4.00
2018-12-21T06:41:49.895Z,4.00
2018-12-21T06:42:50.808Z,4.00
2018-12-21T06:43:50.051Z,0.00
2018-12-21T06:44:49.812Z,0.00
2018-12-21T06:45:49.871Z,4.00
2018-12-21T06:46:49.774Z,8.00
2018-12-21T06:47:49.699Z,4.00
2018-12-21T06:48:49.665Z,8.00
2018-12-21T06:49:49.635Z,8.00
2018-12-21T06:50:49.604Z,8.00
2018-12-21T06:51:49.631Z,12.00
2018-12-21T06:52:49.544Z,12.00
2018-12-21T06:53:49.507Z,16.00
2018-12-21T06:54:49.473Z,16.00
2018-12-21T06:55:49.440Z,16.00
2018-12-21T06:56:49.453Z,20.00
2018-12-21T06:57:49.379Z,24.00
2018-12-21T06:58:49.348Z,28.00
2018-12-21T06:59:49.357Z,28.00
2018-12-21T07:00:49.292Z,36.00
2018-12-21T07:01:49.265Z,36.00
2018-12-21T07:02:49.253Z,40.00
2018-12-21T07:03:49.193Z,44.00
2018-12-21T07:04:49.154Z,44.00
2018-12-21T07:05:49.126Z,48.00
2018-12-21T07:06:49.088Z,52.00
2018-12-21T07:07:49.099Z,60.00
2018-12-21T07:08:49.023Z,60.00
2018-12-21T07:09:49.030Z,64.00
2018-12-21T07:10:48.967Z,68.00
2018-12-21T07:11:48.926Z,76.00
2018-12-21T07:12:48.939Z,84.00
2018-12-21T07:13:48.865Z,88.00
2018-12-21T07:14:48.842Z,92.00
2018-12-21T07:15:49.485Z,100.00
2018-12-21T07:16:48.761Z,112.00
2018-12-21T07:17:48.772Z,116.00
2018-12-21T07:18:48.701Z,128.00
2018-12-21T07:19:48.670Z,136.00
2018-12-21T07:20:48.679Z,152.00
2018-12-21T07:21:48.600Z,168.00
2018-12-21T07:22:48.571Z,188.00
2018-12-21T07:23:49.043Z,208.00
2018-12-21T07:24:48.552Z,220.00
2018-12-21T07:25:48.551Z,236.00
2018-12-21T07:26:48.441Z,248.00
2018-12-21T07:27:48.988Z,260.00
2018-12-21T07:28:48.384Z,276.00
2018-12-21T07:29:48.381Z,292.00
2018-12-21T07:30:49.049Z,304.00
2018-12-21T07:31:48.280Z,320.00
2018-12-21T07:32:48.266Z,340.00
2018-12-21T07:33:48.985Z,364.00
2018-12-21T07:34:48.951Z,384.00
2018-12-21T07:35:48.149Z,400.00
2018-12-21T07:36:48.149Z,420.00
2018-12-21T07:37:48.085Z,448.00
2018-12-21T07:38:48.055Z,476.00
2018-12-21T07:39:48.068Z,508.00
2018-12-21T07:40:47.993Z,532.00
2018-12-21T07:41:48.012Z,552.00
2018-12-21T07:42:47.922Z,576.00
2018-12-21T07:43:47.895Z,600.00
2018-12-21T07:44:47.874Z,632.00
2018-12-21T07:45:47.828Z,664.00
2018-12-21T07:46:47.847Z,704.00
2018-12-21T07:47:47.778Z,748.00
2018-12-21T07:48:47.734Z,808.00
2018-12-21T07:49:48.042Z,872.00
2018-12-21T07:50:47.670Z,920.00
2018-12-21T07:51:47.636Z,944.00
2018-12-21T07:52:47.607Z,956.00
2018-12-21T07:53:47.579Z,964.00
2018-12-21T07:54:48.097Z,976.00
2018-12-21T07:55:47.512Z,1000.00
2018-12-21T07:56:47.989Z,1016.00
2018-12-21T07:57:47.444Z,1032.00
2018-12-21T07:58:47.417Z,1040.00
2018-12-21T07:59:47.420Z,1068.00
2018-12-21T08:00:47.991Z,1120.00
2018-12-21T08:01:47.328Z,1176.00
2018-12-21T08:02:47.285Z,1228.00
2018-12-21T08:03:47.249Z,1276.00
2018-12-21T08:04:47.274Z,1300.00
2018-12-21T08:05:47.180Z,1332.00
2018-12-21T08:07:47.158Z,1400.00
2018-12-21T08:08:47.093Z,1440.00
2018-12-21T08:09:47.054Z,1496.00
2018-12-21T08:10:48.025Z,1568.00
2018-12-21T08:11:47.036Z,1648.00
2018-12-21T08:12:46.962Z,1700.00
2018-12-21T08:13:47.491Z,1716.00
2018-12-21T08:14:46.936Z,1756.00
2018-12-21T08:15:47.045Z,1840.00
2018-12-21T08:16:47.499Z,1944.00
2018-12-21T08:17:47.506Z,2048.00
2018-12-21T08:18:46.870Z,2092.00
2018-12-21T08:19:46.753Z,2056.00
2018-12-21T08:20:46.742Z,1984.00
2018-12-21T08:21:46.668Z,1888.00
2018-12-21T08:22:46.655Z,1804.00
2018-12-21T08:23:46.618Z,1768.00
2018-12-21T08:24:47.414Z,1756.00
2018-12-21T08:25:47.059Z,1760.00
2018-12-21T08:26:46.508Z,1780.00
2018-12-21T08:27:46.479Z,1784.00
2018-12-21T08:28:46.465Z,1796.00
2018-12-21T08:29:46.412Z,1824.00
2018-12-21T08:30:46.418Z,1840.00
2018-12-21T08:31:46.424Z,1872.00
2018-12-21T08:32:46.334Z,1936.00
2018-12-21T08:33:47.004Z,2000.00
2018-12-21T08:34:46.248Z,2036.00
2018-12-21T08:35:46.213Z,2044.00
2018-12-21T08:36:46.229Z,2012.00
2018-12-21T08:37:46.149Z,1964.00
2018-12-21T08:38:46.125Z,1932.00
2018-12-21T08:39:46.146Z,1932.00
2018-12-21T08:40:46.050Z,1944.00
2018-12-21T08:41:46.087Z,1952.00
2018-12-21T08:42:45.990Z,1964.00
2018-12-21T08:43:45.962Z,1988.00
2018-12-21T08:44:46.017Z,2000.00
2018-12-21T08:45:46.493Z,2008.00
2018-12-21T08:46:45.864Z,2020.00
2018-12-21T08:47:45.831Z,2044.00
2018-12-21T08:48:46.502Z,2080.00
2018-12-21T08:49:45.810Z,2120.00
2018-12-21T08:50:46.545Z,2156.00
2018-12-21T08:51:45.700Z,2196.00
2018-12-21T08:52:45.719Z,2236.00
2018-12-21T08:53:52.547Z,2276.00
2018-12-21T08:54:45.609Z,2320.00
2018-12-21T08:55:45.571Z,2384.00
2018-12-21T08:56:45.573Z,2508.00
2018-12-21T08:57:46.057Z,2696.00
2018-12-21T08:58:45.518Z,2880.00
2018-12-21T08:59:45.442Z,3040.00
2018-12-21T09:00:45.476Z,3132.00
2018-12-21T09:01:45.448Z,3092.00
2018-12-21T09:02:45.355Z,2928.00
2018-12-21T09:03:45.317Z,2760.00
2018-12-21T09:04:45.286Z,2648.00
2018-12-21T09:05:45.251Z,2572.00
2018-12-21T09:06:45.284Z,2540.00
2018-12-21T09:07:45.198Z,2576.00
2018-12-21T09:08:45.154Z,2680.00
2018-12-21T09:09:45.122Z,2796.00
2018-12-21T09:10:45.096Z,2844.00
2018-12-21T09:11:45.105Z,2804.00
2018-12-21T09:12:45.072Z,2716.00
2018-12-21T09:13:44.994Z,2652.00
2018-12-21T09:14:44.991Z,2604.00
2018-12-21T09:15:44.932Z,2536.00
2018-12-21T09:16:45.406Z,2472.00
2018-12-21T09:17:44.911Z,2444.00
2018-12-21T09:18:44.844Z,2448.00
2018-12-21T09:19:44.836Z,2468.00
2018-12-21T09:20:45.499Z,2512.00
2018-12-21T09:21:44.755Z,2596.00
2018-12-21T09:22:44.758Z,2704.00
2018-12-21T09:23:44.707Z,2808.00
2018-12-21T09:24:44.648Z,2920.00
2018-12-21T09:25:44.615Z,3016.00
2018-12-21T09:26:44.586Z,3092.00
2018-12-21T09:27:44.600Z,3132.00
2018-12-21T09:28:44.517Z,3152.00
2018-12-21T09:29:44.550Z,3192.00
2018-12-21T09:30:44.455Z,3264.00
2018-12-21T09:31:44.444Z,3348.00
2018-12-21T09:32:44.447Z,3412.00
2018-12-21T09:33:44.427Z,3456.00
2018-12-21T09:34:45.009Z,3496.00
2018-12-21T09:35:44.296Z,3556.00
2018-12-21T09:36:44.264Z,3612.00
2018-12-21T09:37:44.232Z,3648.00
2018-12-21T09:38:44.246Z,3644.00
2018-12-21T09:39:45.003Z,3624.00
2018-12-21T09:40:44.136Z,3580.00
2018-12-21T09:41:44.109Z,3512.00
2018-12-21T09:42:45.001Z,3460.00
2018-12-21T09:43:44.554Z,3472.00
2018-12-21T09:44:52.312Z,3544.00
2018-12-21T09:45:44.044Z,3672.00
2018-12-21T09:46:43.946Z,3820.00
2018-12-21T09:47:44.411Z,3952.00
2018-12-21T09:48:43.889Z,4056.00
2018-12-21T09:49:43.856Z,4144.00
2018-12-21T09:50:43.871Z,4208.00
2018-12-21T09:51:45.368Z,4224.00
2018-12-21T09:52:43.760Z,4216.00
2018-12-21T09:53:43.728Z,4184.00
2018-12-21T09:54:43.698Z,4100.00
2018-12-21T09:55:43.722Z,3984.00
2018-12-21T09:56:43.633Z,3896.00
2018-12-21T09:57:43.601Z,3876.00
2018-12-21T09:58:43.633Z,3876.00
2018-12-21T09:59:43.540Z,3876.00
2018-12-21T10:00:43.577Z,3884.00
2018-12-21T10:01:43.533Z,3936.00
2018-12-21T10:02:43.444Z,4032.00
2018-12-21T10:03:43.415Z,4132.00
2018-12-21T10:04:43.385Z,4208.00
2018-12-21T10:05:43.355Z,4220.00
2018-12-21T10:06:43.434Z,4076.00
2018-12-21T10:07:43.289Z,3800.00
2018-12-21T10:08:43.269Z,3564.00
2018-12-21T10:09:43.284Z,3472.00
2018-12-21T10:10:43.198Z,3472.00
2018-12-21T10:11:43.211Z,3500.00
2018-12-21T10:12:43.132Z,3512.00
2018-12-21T10:13:43.143Z,3452.00
2018-12-21T10:14:43.215Z,3328.00
2018-12-21T10:15:43.041Z,3204.00
2018-12-21T10:16:43.056Z,3112.00
2018-12-21T10:17:42.979Z,3032.00
2018-12-21T10:18:42.974Z,2948.00
2018-12-21T10:19:42.920Z,2900.00
2018-12-21T10:20:42.890Z,2840.00
2018-12-21T10:21:42.903Z,2700.00
2018-12-21T10:22:43.506Z,2516.00
2018-12-21T10:23:42.789Z,2412.00
2018-12-21T10:24:42.806Z,2420.00
2018-12-21T10:25:42.794Z,2532.00
2018-12-21T10:26:42.698Z,2736.00
2018-12-21T10:27:42.680Z,2996.00
2018-12-21T10:28:42.690Z,3264.00
2018-12-21T10:29:48.441Z,3492.00
2018-12-21T10:30:42.573Z,3592.00
2018-12-21T10:31:42.547Z,3540.00
2018-12-21T10:32:42.514Z,3428.00
2018-12-21T10:33:42.526Z,3340.00
2018-12-21T10:34:42.464Z,3284.00
2018-12-21T10:35:42.454Z,3216.00
2018-12-21T10:36:42.391Z,3108.00
2018-12-21T10:37:42.369Z,2988.00
2018-12-21T10:38:42.363Z,2820.00
2018-12-21T10:39:42.297Z,2668.00
2018-12-21T10:40:42.327Z,2628.00
2018-12-21T10:41:42.236Z,2788.00
2018-12-21T10:42:42.206Z,3028.00
2018-12-21T10:43:42.166Z,3192.00
2018-12-21T10:44:42.143Z,3300.00
2018-12-21T10:45:42.154Z,3356.00
2018-12-21T10:46:42.075Z,3408.00
2018-12-21T10:47:42.051Z,3484.00
2018-12-21T10:48:42.072Z,3568.00
2018-12-21T10:49:41.977Z,3668.00
2018-12-21T10:50:42.515Z,3752.00
2018-12-21T10:51:41.971Z,3712.00
2018-12-21T10:52:41.890Z,3608.00
2018-12-21T10:53:41.867Z,3472.00
2018-12-21T10:54:41.871Z,3360.00
2018-12-21T10:55:41.795Z,3272.00
2018-12-21T10:56:41.760Z,3188.00
2018-12-21T10:57:42.514Z,3104.00
2018-12-21T10:58:41.736Z,3044.00
2018-12-21T10:59:43.497Z,3060.00
2018-12-21T11:00:41.639Z,3152.00
2018-12-21T11:01:42.573Z,3296.00
2018-12-21T11:02:41.576Z,3444.00
2018-12-21T11:03:41.544Z,3512.00
2018-12-21T11:04:41.567Z,3512.00
2018-12-21T11:05:42.026Z,3536.00
2018-12-21T11:06:41.481Z,3520.00
2018-12-21T11:07:41.435Z,3448.00
2018-12-21T11:08:42.014Z,3332.00
2018-12-21T11:09:41.408Z,3180.00
2018-12-21T11:10:41.399Z,3004.00
2018-12-21T11:11:41.298Z,2844.00
2018-12-21T11:12:41.415Z,2812.00
2018-12-21T11:13:41.249Z,2904.00
2018-12-21T11:14:41.215Z,3072.00
2018-12-21T11:15:41.225Z,3244.00
2018-12-21T11:16:41.152Z,3344.00
2018-12-21T11:17:41.119Z,3384.00
2018-12-21T11:18:41.091Z,3312.00
2018-12-21T11:19:41.074Z,3164.00
2018-12-21T11:20:41.088Z,3024.00
2018-12-21T11:21:40.991Z,2932.00
2018-12-21T11:22:40.971Z,2788.00
2018-12-21T11:23:40.927Z,2684.00
2018-12-21T11:24:41.215Z,2632.00
2018-12-21T11:25:40.955Z,2576.00
2018-12-21T11:26:40.902Z,2500.00
2018-12-21T11:27:40.812Z,2456.00
2018-12-21T11:28:40.780Z,2404.00
2018-12-21T11:29:40.776Z,2356.00
2018-12-21T11:30:40.718Z,2284.00
2018-12-21T11:31:40.766Z,2236.00
2018-12-21T11:32:40.670Z,2212.00
2018-12-21T11:33:40.623Z,2228.00
2018-12-21T11:34:40.584Z,2256.00
2018-12-21T11:35:40.559Z,2240.00
2018-12-21T11:36:40.956Z,2264.00
2018-12-21T11:37:40.512Z,2336.00
2018-12-21T11:38:41.034Z,2416.00
2018-12-21T11:39:40.438Z,2472.00
2018-12-21T11:40:40.447Z,2476.00
2018-12-21T11:41:41.071Z,2544.00
2018-12-21T11:42:40.394Z,2676.00
2018-12-21T11:43:40.305Z,2936.00
2018-12-21T11:44:40.273Z,3252.00
2018-12-21T11:45:40.377Z,3472.00
2018-12-21T11:46:40.232Z,3588.00
2018-12-21T11:47:40.262Z,3632.00
2018-12-21T11:48:40.165Z,3600.00
2018-12-21T11:49:40.118Z,3480.00
2018-12-21T11:50:40.148Z,3568.00
2018-12-21T11:51:40.056Z,3560.00
2018-12-21T11:52:40.028Z,3368.00
2018-12-21T11:53:39.999Z,3140.00
2018-12-21T11:54:44.198Z,2960.00
2018-12-21T11:55:40.566Z,3040.00
2018-12-21T11:56:39.904Z,3228.00
2018-12-21T11:57:39.863Z,3144.00
2018-12-21T11:58:39.839Z,2964.00
2018-12-21T11:59:44.891Z,2936.00
2018-12-21T12:00:39.774Z,2892.00
2018-12-21T12:01:39.745Z,2804.00
2018-12-21T12:02:39.714Z,2800.00
2018-12-21T12:03:39.679Z,2836.00
2018-12-21T12:04:39.727Z,2700.00
2018-12-21T12:05:39.682Z,2476.00
2018-12-21T12:06:39.590Z,2292.00
2018-12-21T12:07:39.559Z,2096.00
2018-12-21T12:08:39.528Z,1996.00
2018-12-21T12:09:39.497Z,1964.00
2018-12-21T12:10:39.512Z,1824.00
2018-12-21T12:11:39.513Z,1648.00
2018-12-21T12:12:39.490Z,1552.00
2018-12-21T12:13:39.415Z,1520.00
2018-12-21T12:14:39.352Z,1544.00
2018-12-21T12:15:39.309Z,1560.00
2018-12-21T12:16:39.387Z,1584.00
2018-12-21T12:17:39.250Z,1608.00
2018-12-21T12:18:40.034Z,1632.00
2018-12-21T12:19:39.228Z,1656.00
2018-12-21T12:20:39.154Z,1660.00
2018-12-21T12:21:39.120Z,1628.00
2018-12-21T12:22:39.137Z,1544.00
2018-12-21T12:23:39.056Z,1420.00
2018-12-21T12:24:39.048Z,1364.00
2018-12-21T12:25:39.002Z,1308.00
2018-12-21T12:26:44.362Z,1264.00
2018-12-21T12:27:38.979Z,1252.00
2018-12-21T12:28:38.904Z,1268.00
2018-12-21T12:29:38.869Z,1320.00
2018-12-21T12:30:38.838Z,1380.00
2018-12-21T12:31:38.819Z,1420.00
2018-12-21T12:32:38.816Z,1452.00
2018-12-21T12:33:38.748Z,1456.00
2018-12-21T12:34:38.710Z,1452.00
2018-12-21T12:35:38.724Z,1456.00
2018-12-21T12:36:38.654Z,1440.00
2018-12-21T12:37:38.665Z,1412.00
2018-12-21T12:38:38.586Z,1364.00
2018-12-21T12:39:38.709Z,1312.00
2018-12-21T12:40:38.528Z,1308.00
2018-12-21T12:41:38.491Z,1300.00
2018-12-21T12:42:38.596Z,1312.00
2018-12-21T12:43:38.433Z,1292.00
2018-12-21T12:44:38.398Z,1260.00
2018-12-21T12:45:38.370Z,1212.00